Time;durP1;ratioP1;P1;durP2;ratioP2;P2;SDS_P1;SDS_P2;PMS_P1;PMS_P2;Temp;Humidity;BMP_temperature;BMP_pressure;BME280_temperature;BME280_humidity;BME280_pressure;Samples;Min_cycle;Max_cycle;Signal;HPM_P1;HPM_P2
2023/05/30 00:01:46;;;;;;;2.78;0.30;;;9.80;99.90;;;;;;5005712;28;20030;-76
2023/05/30 00:04:12;;;;;;;6.43;0.80;;;9.80;99.90;;;;;;5007013;28;20493;-75
2023/05/30 00:06:38;;;;;;;5.15;0.30;;;9.70;99.90;;;;;;5002566;28;20027;-75
2023/05/30 00:09:04;;;;;;;5.95;0.70;;;9.70;99.90;;;;;;5004683;28;20103;-77
2023/05/30 00:11:30;;;;;;;7.25;0.50;;;9.70;99.90;;;;;;5021020;28;20026;-77
2023/05/30 00:13:56;;;;;;;5.72;0.45;;;9.70;99.90;;;;;;5001955;28;20228;-77
2023/05/30 00:16:23;;;;;;;4.03;0.50;;;9.70;99.90;;;;;;5003390;28;20150;-78
2023/05/30 00:18:48;;;;;;;4.05;0.43;;;9.70;99.90;;;;;;5007512;28;20036;-79
2023/05/30 00:21:17;;;;;;;3.88;0.47;;;9.60;99.90;;;;;;5007007;28;20038;-79
2023/05/30 00:23:45;;;;;;;7.13;0.50;;;9.60;99.90;;;;;;5003421;28;20048;-78
2023/05/30 00:26:11;;;;;;;4.93;0.40;;;9.60;99.90;;;;;;5005327;28;20521;-78
2023/05/30 00:28:40;;;;;;;5.20;0.50;;;9.50;99.90;;;;;;5005968;28;20026;-76
2023/05/30 00:31:06;;;;;;;3.72;0.40;;;9.50;99.90;;;;;;4994430;28;20030;-78
2023/05/30 00:33:32;;;;;;;4.05;0.43;;;9.50;99.90;;;;;;4996416;28;20489;-78
2023/05/30 00:35:58;;;;;;;5.60;0.63;;;9.50;99.90;;;;;;5009603;28;20088;-78
2023/05/30 00:38:23;;;;;;;2.67;0.30;;;9.50;99.90;;;;;;5012873;28;20109;-76
2023/05/30 00:40:50;;;;;;;4.10;0.43;;;9.50;99.90;;;;;;5012465;28;20027;-78
2023/05/30 00:43:18;;;;;;;6.10;0.50;;;9.40;99.90;;;;;;5004067;28;20045;-78
2023/05/30 00:45:44;;;;;;;4.68;0.30;;;9.40;99.90;;;;;;5010158;28;20032;-77
2023/05/30 00:48:10;;;;;;;5.28;0.45;;;9.40;99.90;;;;;;5009389;28;20041;-78
2023/05/30 00:50:38;;;;;;;2.10;0.82;;;9.30;99.90;;;;;;5007538;28;20030;-78
2023/05/30 00:53:05;;;;;;;6.30;0.45;;;9.30;99.90;;;;;;5011553;28;20030;-77
2023/05/30 00:55:32;;;;;;;4.25;0.40;;;9.30;99.90;;;;;;4995518;28;20113;-78
2023/05/30 00:57:57;;;;;;;4.93;0.65;;;9.30;99.90;;;;;;5009970;28;20562;-77
2023/05/30 01:00:25;;;;;;;5.30;0.50;;;9.20;99.90;;;;;;5009951;28;20118;-78
2023/05/30 01:02:51;;;;;;;2.20;0.30;;;9.20;99.90;;;;;;5011013;28;20069;-78
2023/05/30 01:05:17;;;;;;;4.90;0.50;;;9.30;99.90;;;;;;5008040;28;20042;-77
2023/05/30 01:07:44;;;;;;;3.92;0.30;;;9.20;99.90;;;;;;4996862;28;20022;-76
2023/05/30 01:10:16;;;;;;;4.22;0.40;;;9.30;99.90;;;;;;5008731;28;20080;-78
2023/05/30 01:12:56;;;;;;;6.45;0.80;;;9.20;99.90;;;;;;5008802;28;20034;-78
2023/05/30 01:15:29;;;;;;;7.85;0.60;;;9.20;99.90;;;;;;5019857;28;20494;-76
2023/05/30 01:18:03;;;;;;;3.97;0.35;;;9.20;99.90;;;;;;5008972;28;20030;-78
2023/05/30 01:20:36;;;;;;;5.13;0.60;;;9.20;99.90;;;;;;5008198;28;20080;-77
2023/05/30 01:23:20;;;;;;;5.60;0.40;;;9.20;99.90;;;;;;5009506;28;20065;-74
2023/05/30 01:26:01;;;;;;;2.60;0.30;;;9.10;99.90;;;;;;5007929;28;20046;-76
2023/05/30 01:28:32;;;;;;;9.88;0.70;;;9.10;99.90;;;;;;5008859;28;20080;-76
2023/05/30 01:30:59;;;;;;;6.20;0.57;;;9.10;99.90;;;;;;5019726;28;20038;-76
2023/05/30 01:33:27;;;;;;;7.82;1.13;;;9.00;99.90;;;;;;5007304;28;20026;-75
2023/05/30 01:35:53;;;;;;;6.53;0.50;;;9.00;99.90;;;;;;5009073;28;20033;-75
2023/05/30 01:38:20;;;;;;;7.82;1.00;;;9.00;99.90;;;;;;5020058;28;20026;-76
2023/05/30 01:40:51;;;;;;;5.53;0.50;;;8.90;99.90;;;;;;5005515;28;20018;-75
2023/05/30 01:43:38;;;;;;;4.40;0.57;;;8.90;99.90;;;;;;4993146;28;20040;-75
2023/05/30 01:46:30;;;;;;;1.95;0.35;;;8.90;99.90;;;;;;5006826;28;20482;-76
2023/05/30 01:49:27;;;;;;;7.65;0.80;;;9.00;99.90;;;;;;5005981;28;20038;-78
2023/05/30 01:51:59;;;;;;;6.45;0.55;;;9.00;99.90;;;;;;5003240;28;20038;-78
2023/05/30 01:54:28;;;;;;;4.18;0.40;;;9.00;99.90;;;;;;4992625;28;20026;-79
2023/05/30 01:57:01;;;;;;;7.72;0.57;;;9.10;99.90;;;;;;5007346;28;20029;-78
2023/05/30 01:59:28;;;;;;;4.30;0.60;;;9.00;99.90;;;;;;4983121;28;20031;-76
2023/05/30 02:01:54;;;;;;;9.07;0.57;;;9.10;99.90;;;;;;5009394;28;20026;-78
2023/05/30 02:04:20;;;;;;;6.47;1.02;;;9.10;99.90;;;;;;4990540;28;20038;-78
2023/05/30 02:06:46;;;;;;;6.40;0.93;;;9.10;99.90;;;;;;5008256;28;20401;-78
2023/05/30 02:09:11;;;;;;;5.82;0.60;;;9.20;99.90;;;;;;4992234;28;20034;-78
2023/05/30 02:11:37;;;;;;;4.18;0.70;;;9.20;99.90;;;;;;4991203;28;20037;-78
2023/05/30 02:14:05;;;;;;;4.43;0.40;;;9.20;99.90;;;;;;5006332;28;20045;-76
2023/05/30 02:16:31;;;;;;;7.53;0.82;;;9.30;99.90;;;;;;5001554;28;20092;-78
2023/05/30 02:18:57;;;;;;;4.32;0.50;;;9.20;99.90;;;;;;4992532;28;20030;-78
2023/05/30 02:21:23;;;;;;;4.00;0.40;;;9.20;99.90;;;;;;5008309;28;20033;-77
2023/05/30 02:23:49;;;;;;;2.72;0.30;;;9.20;99.90;;;;;;5004553;28;20034;-78
2023/05/30 02:26:15;;;;;;;7.00;0.70;;;9.30;99.90;;;;;;5005529;28;20478;-78
2023/05/30 02:28:41;;;;;;;4.65;0.65;;;9.20;99.90;;;;;;4990390;28;20038;-77
2023/05/30 02:31:07;;;;;;;6.28;0.73;;;9.20;99.90;;;;;;5003537;28;20025;-78
2023/05/30 02:33:33;;;;;;;3.78;0.60;;;9.20;99.90;;;;;;4989392;28;20033;-77
2023/05/30 02:35:58;;;;;;;7.38;0.60;;;9.20;99.90;;;;;;4992565;28;20478;-75
2023/05/30 02:38:24;;;;;;;9.60;0.70;;;9.20;99.90;;;;;;5003292;28;20521;-75
2023/05/30 02:40:51;;;;;;;10.13;0.98;;;9.10;99.90;;;;;;4990580;28;20104;-76
2023/05/30 02:43:16;;;;;;;10.55;1.00;;;9.20;99.90;;;;;;5006046;28;20363;-75
2023/05/30 02:45:42;;;;;;;7.18;0.60;;;9.10;99.90;;;;;;4998886;28;20124;-75
2023/05/30 02:48:08;;;;;;;5.07;0.57;;;9.20;99.90;;;;;;5016326;28;20053;-75
2023/05/30 02:50:34;;;;;;;8.48;0.70;;;9.20;99.90;;;;;;5000407;28;20449;-75
2023/05/30 02:53:02;;;;;;;6.38;0.88;;;9.20;99.90;;;;;;4990553;28;20042;-75
2023/05/30 02:55:28;;;;;;;6.43;0.63;;;9.20;99.90;;;;;;5003505;28;20072;-75
2023/05/30 02:58:14;;;;;;;6.65;0.70;;;9.20;99.90;;;;;;5007060;28;20029;-75
2023/05/30 03:00:50;;;;;;;8.30;0.60;;;9.20;99.90;;;;;;5007864;28;20463;-75
2023/05/30 03:03:21;;;;;;;3.50;0.40;;;9.30;99.90;;;;;;4992052;28;20140;-76
2023/05/30 03:05:57;;;;;;;4.50;0.68;;;9.30;99.90;;;;;;5007268;28;20084;-76
2023/05/30 03:08:42;;;;;;;2.55;0.45;;;9.40;99.90;;;;;;5000305;28;20517;-75
2023/05/30 03:11:08;;;;;;;2.28;0.40;;;9.40;99.90;;;;;;4989893;28;20022;-75
2023/05/30 03:13:34;;;;;;;8.43;1.10;;;9.40;99.90;;;;;;4989761;28;20061;-76
2023/05/30 03:16:00;;;;;;;5.53;0.50;;;9.40;99.90;;;;;;5006853;28;20068;-75
2023/05/30 03:18:26;;;;;;;5.40;0.80;;;9.40;99.90;;;;;;5007627;28;20064;-76
2023/05/30 03:20:52;;;;;;;3.70;0.68;;;9.50;99.90;;;;;;4990482;28;20367;-76
2023/05/30 03:23:17;;;;;;;6.53;0.60;;;9.50;99.90;;;;;;5019564;28;20479;-77
2023/05/30 03:25:44;;;;;;;5.72;0.70;;;9.50;99.90;;;;;;4995371;28;20423;-77
2023/05/30 03:28:10;;;;;;;8.68;0.50;;;9.50;99.90;;;;;;4991212;28;20026;-79
2023/05/30 03:30:56;;;;;;;10.35;0.98;;;9.60;99.90;;;;;;4991648;28;20056;-78
2023/05/30 03:33:22;;;;;;;7.38;0.88;;;9.60;99.90;;;;;;4991295;28;20026;-78
2023/05/30 03:35:48;;;;;;;4.43;0.55;;;9.60;99.90;;;;;;5020563;28;20032;-79
2023/05/30 03:38:14;;;;;;;7.10;0.50;;;9.70;99.90;;;;;;5006314;28;20121;-79
2023/05/30 03:40:40;;;;;;;7.15;0.93;;;9.70;99.90;;;;;;4998494;28;20045;-76
2023/05/30 03:43:06;;;;;;;3.83;1.05;;;9.70;99.90;;;;;;5001731;28;20475;-78
2023/05/30 03:45:32;;;;;;;6.22;1.17;;;9.70;99.90;;;;;;4988611;28;20029;-77
2023/05/30 03:47:58;;;;;;;3.00;0.50;;;9.80;99.90;;;;;;5005298;28;20261;-78
2023/05/30 03:50:24;;;;;;;4.50;0.70;;;9.90;99.90;;;;;;4986464;28;20124;-78
2023/05/30 03:52:50;;;;;;;4.10;0.50;;;9.90;99.90;;;;;;5005291;28;20037;-78
2023/05/30 03:55:15;;;;;;;9.52;1.00;;;9.90;99.90;;;;;;4990514;28;20025;-78
2023/05/30 03:57:41;;;;;;;8.88;0.80;;;9.90;99.90;;;;;;5003590;28;20061;-76
2023/05/30 04:00:07;;;;;;;3.75;0.60;;;9.90;99.90;;;;;;5006131;28;20475;-76
2023/05/30 04:02:38;;;;;;;3.78;1.13;;;10.00;99.90;;;;;;5002555;28;20391;-75
2023/05/30 04:05:05;;;;;;;5.28;0.73;;;10.00;99.90;;;;;;5000395;28;20022;-75
2023/05/30 04:07:35;;;;;;;6.03;0.80;;;10.00;99.90;;;;;;5001901;28;20037;-75
2023/05/30 04:10:05;;;;;;;4.32;0.80;;;10.10;99.90;;;;;;5001521;28;20034;-75
2023/05/30 04:12:31;;;;;;;3.88;0.60;;;10.10;99.90;;;;;;5001739;28;20034;-76
2023/05/30 04:14:58;;;;;;;4.82;0.60;;;10.10;99.90;;;;;;5001179;28;20533;-75
2023/05/30 04:17:24;;;;;;;5.28;0.70;;;10.20;99.90;;;;;;5017488;28;20475;-75
2023/05/30 04:19:52;;;;;;;4.20;0.50;;;10.20;99.90;;;;;;4999316;28;20372;-76
2023/05/30 04:22:18;;;;;;;3.80;0.70;;;10.30;99.90;;;;;;4988018;28;20033;-77
2023/05/30 04:24:45;;;;;;;8.18;0.77;;;10.30;99.90;;;;;;5005149;28;20034;-77
2023/05/30 04:27:13;;;;;;;5.97;0.75;;;10.30;99.90;;;;;;4998573;28;20528;-76
2023/05/30 04:29:42;;;;;;;4.97;0.73;;;10.30;99.90;;;;;;5000551;28;20034;-76
2023/05/30 04:32:09;;;;;;;5.50;0.60;;;10.30;99.90;;;;;;5014116;28;20478;-75
2023/05/30 04:34:35;;;;;;;3.85;0.80;;;10.40;99.90;;;;;;5005693;28;20130;-77
2023/05/30 04:37:01;;;;;;;2.90;0.70;;;10.30;99.90;;;;;;5005159;28;20018;-75
2023/05/30 04:39:27;;;;;;;2.78;0.68;;;10.40;99.90;;;;;;5001053;28;20128;-78
2023/05/30 04:41:54;;;;;;;4.93;0.70;;;10.40;99.90;;;;;;4979376;28;20085;-77
2023/05/30 04:44:22;;;;;;;5.88;0.80;;;10.50;99.90;;;;;;5002972;28;20101;-77
2023/05/30 04:46:47;;;;;;;4.72;0.52;;;10.50;99.90;;;;;;5018800;28;20076;-77
2023/05/30 04:49:14;;;;;;;4.38;0.57;;;10.50;99.90;;;;;;5004169;28;20445;-76
2023/05/30 04:51:42;;;;;;;6.55;0.70;;;10.50;99.90;;;;;;5002093;28;20033;-76
2023/05/30 04:54:08;;;;;;;9.75;1.42;;;10.60;99.90;;;;;;5013742;28;20437;-78
2023/05/30 04:56:33;;;;;;;6.90;0.80;;;10.50;99.90;;;;;;5002034;28;20056;-76
2023/05/30 04:58:59;;;;;;;4.88;1.15;;;10.50;99.90;;;;;;5004641;28;20076;-77
2023/05/30 05:01:25;;;;;;;6.60;1.40;;;10.50;99.90;;;;;;4987241;28;20088;-76
2023/05/30 05:03:51;;;;;;;4.55;0.80;;;10.60;99.90;;;;;;5013776;28;20045;-79
2023/05/30 05:06:18;;;;;;;2.97;0.65;;;10.60;99.90;;;;;;5002078;28;20050;-76
2023/05/30 05:08:43;;;;;;;4.70;0.90;;;10.70;99.90;;;;;;5002861;28;20382;-76
2023/05/30 05:11:10;;;;;;;5.00;1.00;;;10.70;99.90;;;;;;5000985;28;20530;-76
2023/05/30 05:13:36;;;;;;;4.57;0.80;;;10.60;99.90;;;;;;5005421;28;20046;-76
2023/05/30 05:16:04;;;;;;;5.78;1.80;;;10.70;99.90;;;;;;5004408;28;20027;-76
2023/05/30 05:18:30;;;;;;;4.80;0.90;;;10.70;99.90;;;;;;5008392;28;20398;-76
2023/05/30 05:20:56;;;;;;;4.97;1.13;;;10.70;99.90;;;;;;5007639;28;20029;-76
2023/05/30 05:23:23;;;;;;;5.95;1.30;;;10.80;99.90;;;;;;5006202;28;20038;-78
2023/05/30 05:25:48;;;;;;;6.30;1.40;;;10.70;99.90;;;;;;5007550;28;20292;-76
2023/05/30 05:28:15;;;;;;;8.07;1.17;;;10.80;99.90;;;;;;5005778;28;20356;-76
2023/05/30 05:30:41;;;;;;;5.60;0.98;;;10.80;99.90;;;;;;5006564;28;20025;-77
2023/05/30 05:33:07;;;;;;;7.50;1.83;;;10.90;99.90;;;;;;5008438;28;20038;-77
2023/05/30 05:35:34;;;;;;;4.70;0.98;;;11.00;99.90;;;;;;5004165;28;20037;-76
2023/05/30 05:38:00;;;;;;;4.80;1.52;;;11.00;99.90;;;;;;4991918;28;20029;-77
2023/05/30 05:40:25;;;;;;;4.65;0.73;;;11.10;99.90;;;;;;4992821;28;20493;-77
2023/05/30 05:42:51;;;;;;;4.80;1.02;;;11.20;99.90;;;;;;5009167;28;20042;-77
2023/05/30 05:45:17;;;;;;;4.78;1.23;;;11.20;99.90;;;;;;5007583;28;20029;-77
2023/05/30 05:47:42;;;;;;;4.85;1.00;;;11.20;99.90;;;;;;4991421;28;20088;-76
2023/05/30 05:50:08;;;;;;;5.13;1.02;;;11.20;99.90;;;;;;5007139;28;20025;-78
2023/05/30 05:52:34;;;;;;;2.65;0.63;;;11.30;99.90;;;;;;5000686;28;20034;-77
2023/05/30 05:55:00;;;;;;;5.88;1.35;;;11.40;99.90;;;;;;5006988;28;20031;-76
2023/05/30 05:57:25;;;;;;;4.40;1.10;;;11.30;99.90;;;;;;5006479;28;20041;-77
2023/05/30 05:59:51;;;;;;;8.10;1.67;;;11.20;99.90;;;;;;5004600;28;20041;-77
2023/05/30 06:02:17;;;;;;;2.90;0.70;;;11.30;99.90;;;;;;5007658;28;20026;-76
2023/05/30 06:04:42;;;;;;;4.72;1.20;;;11.50;99.90;;;;;;5005900;28;20037;-76
2023/05/30 06:07:08;;;;;;;11.32;2.15;;;11.50;99.90;;;;;;4987302;28;20104;-76
2023/05/30 06:09:34;;;;;;;4.47;1.17;;;11.30;99.90;;;;;;5007030;28;20482;-77
2023/05/30 06:12:03;;;;;;;8.07;1.58;;;11.30;99.90;;;;;;5008372;28;20045;-76
2023/05/30 06:14:29;;;;;;;6.88;1.45;;;11.30;99.90;;;;;;5005234;28;20122;-76
2023/05/30 06:16:55;;;;;;;7.32;1.25;;;11.50;99.90;;;;;;5007664;28;20582;-77
2023/05/30 06:19:20;;;;;;;7.65;1.35;;;11.50;99.90;;;;;;5019211;28;20034;-77
2023/05/30 06:21:46;;;;;;;4.57;1.15;;;11.50;99.90;;;;;;4990475;28;20480;-78
2023/05/30 06:24:12;;;;;;;2.88;0.88;;;11.60;99.90;;;;;;5006031;28;20042;-77
2023/05/30 06:26:37;;;;;;;4.05;1.00;;;11.70;99.90;;;;;;5003554;28;20485;-77
2023/05/30 06:29:03;;;;;;;2.80;0.60;;;11.70;99.90;;;;;;4988105;28;20056;-77
2023/05/30 06:31:29;;;;;;;4.38;1.10;;;11.80;99.90;;;;;;5006059;28;20022;-78
2023/05/30 06:33:54;;;;;;;7.05;1.50;;;11.80;99.90;;;;;;5006326;28;20038;-76
2023/05/30 06:36:20;;;;;;;4.68;0.80;;;11.70;99.90;;;;;;5006261;28;20026;-76
2023/05/30 06:38:46;;;;;;;5.65;1.63;;;11.80;99.90;;;;;;4984998;28;20145;-76
2023/05/30 06:41:13;;;;;;;3.67;1.20;;;11.90;99.90;;;;;;5016095;28;20543;-78
2023/05/30 06:43:39;;;;;;;3.90;0.80;;;11.90;99.90;;;;;;5004380;28;20483;-76
2023/05/30 06:46:05;;;;;;;5.40;0.98;;;12.00;99.90;;;;;;5006010;28;20034;-77
2023/05/30 06:48:31;;;;;;;5.97;0.90;;;12.00;99.90;;;;;;5004703;28;20432;-77
2023/05/30 06:50:57;;;;;;;4.90;0.80;;;11.90;99.90;;;;;;5001193;28;20184;-77
2023/05/30 06:53:23;;;;;;;7.80;1.40;;;12.00;99.90;;;;;;5006781;28;20105;-77
2023/05/30 06:55:48;;;;;;;6.03;1.60;;;12.00;99.90;;;;;;5004094;28;20080;-77
2023/05/30 06:58:14;;;;;;;5.50;1.48;;;12.00;99.90;;;;;;5004736;28;20459;-77
2023/05/30 07:00:40;;;;;;;4.97;1.38;;;11.90;99.90;;;;;;5005521;28;20386;-77
2023/05/30 07:03:06;;;;;;;6.50;1.55;;;12.10;99.90;;;;;;5015683;28;20042;-77
2023/05/30 07:05:31;;;;;;;3.38;0.80;;;12.30;99.90;;;;;;5019445;28;20402;-76
2023/05/30 07:07:57;;;;;;;5.15;0.90;;;12.30;99.90;;;;;;5004047;28;20113;-77
2023/05/30 07:10:23;;;;;;;6.93;1.02;;;12.30;99.90;;;;;;5003223;28;20459;-77
2023/05/30 07:12:48;;;;;;;10.13;1.65;;;12.40;99.90;;;;;;4989846;28;20590;-77
2023/05/30 07:15:14;;;;;;;7.30;1.38;;;12.30;99.90;;;;;;5006458;28;20165;-76
2023/05/30 07:17:40;;;;;;;3.95;1.10;;;12.10;99.90;;;;;;5006642;28;20036;-76
2023/05/30 07:20:06;;;;;;;3.63;1.02;;;12.30;99.90;;;;;;5013476;28;20108;-76
2023/05/30 07:22:32;;;;;;;7.35;2.25;;;12.50;99.90;;;;;;5003285;28;20449;-76
2023/05/30 07:24:58;;;;;;;6.30;1.88;;;12.50;99.90;;;;;;5003036;28;20124;-76
2023/05/30 07:27:24;;;;;;;6.88;1.23;;;12.20;99.90;;;;;;4988286;28;20026;-77
2023/05/30 07:29:49;;;;;;;5.22;1.13;;;12.40;99.90;;;;;;4996685;28;20026;-77
2023/05/30 07:32:15;;;;;;;6.20;1.42;;;12.70;99.90;;;;;;5006357;28;20434;-77
2023/05/30 07:34:42;;;;;;;5.55;1.77;;;12.60;99.90;;;;;;5018298;28;20760;-76
2023/05/30 07:37:08;;;;;;;4.88;1.27;;;12.60;99.90;;;;;;5005233;28;20034;-77
2023/05/30 07:39:34;;;;;;;7.22;1.08;;;12.70;99.90;;;;;;5004521;28;20033;-77
2023/05/30 07:42:00;;;;;;;10.20;1.20;;;12.90;99.90;;;;;;5005090;28;20049;-76
2023/05/30 07:44:26;;;;;;;5.53;1.13;;;12.90;99.90;;;;;;5005945;28;20466;-77
2023/05/30 07:46:52;;;;;;;4.63;1.55;;;12.90;99.90;;;;;;5003661;28;20375;-77
2023/05/30 07:49:19;;;;;;;5.63;1.48;;;12.80;99.90;;;;;;4989562;28;20040;-76
2023/05/30 07:51:45;;;;;;;5.40;1.40;;;13.10;99.90;;;;;;4998641;28;20028;-78
2023/05/30 07:54:11;;;;;;;10.25;2.05;;;13.20;99.90;;;;;;4997687;28;20389;-77
2023/05/30 07:56:36;;;;;;;7.38;1.45;;;13.10;99.90;;;;;;5006872;28;20108;-77
2023/05/30 07:59:03;;;;;;;6.43;1.40;;;13.50;99.90;;;;;;5002771;28;20037;-77
2023/05/30 08:01:28;;;;;;;3.58;0.93;;;13.60;99.90;;;;;;4989447;28;20030;-79
2023/05/30 08:03:54;;;;;;;3.17;0.90;;;14.10;99.90;;;;;;5019034;28;20400;-78
2023/05/30 08:06:20;;;;;;;5.78;1.40;;;14.00;99.90;;;;;;5003957;28;20022;-77
2023/05/30 08:08:46;;;;;;;8.23;1.70;;;13.90;99.90;;;;;;5002716;28;20490;-77
2023/05/30 08:11:14;;;;;;;7.10;2.17;;;13.70;99.90;;;;;;5006012;28;20382;-79
2023/05/30 08:13:43;;;;;;;8.80;1.75;;;13.60;99.90;;;;;;5001002;28;20064;-76
2023/05/30 08:16:12;;;;;;;6.15;2.00;;;13.50;99.90;;;;;;5002382;28;20029;-77
2023/05/30 08:18:38;;;;;;;8.60;2.03;;;13.60;99.90;;;;;;4995236;28;20034;-77
2023/05/30 08:21:04;;;;;;;6.72;1.13;;;13.70;99.90;;;;;;5004063;28;20037;-76
2023/05/30 08:23:30;;;;;;;3.47;1.00;;;14.20;99.90;;;;;;5015499;28;20045;-80
2023/05/30 08:25:56;;;;;;;6.53;1.67;;;14.50;99.90;;;;;;5003636;28;20034;-79
2023/05/30 08:28:23;;;;;;;6.85;2.05;;;14.10;99.90;;;;;;4987629;28;20513;-80
2023/05/30 08:30:48;;;;;;;4.63;1.80;;;14.20;99.90;;;;;;5004370;28;20030;-79
2023/05/30 08:33:18;;;;;;;4.75;2.13;;;13.80;99.90;;;;;;5005643;28;20033;-79
2023/05/30 08:35:45;;;;;;;8.35;2.20;;;14.00;99.90;;;;;;5003851;28;20108;-79
2023/05/30 08:38:11;;;;;;;9.25;1.92;;;14.80;99.90;;;;;;5006987;28;20471;-79
2023/05/30 08:40:41;;;;;;;6.50;1.67;;;15.10;99.90;;;;;;5004817;28;20255;-78
2023/05/30 08:43:07;;;;;;;5.20;1.42;;;16.00;99.90;;;;;;5001313;28;20038;-80
2023/05/30 08:45:33;;;;;;;5.00;1.00;;;16.00;99.90;;;;;;5005440;28;20169;-80
2023/05/30 08:48:02;;;;;;;3.90;1.00;;;16.40;99.90;;;;;;5002249;28;20030;-80
2023/05/30 08:50:30;;;;;;;3.75;0.95;;;16.30;99.90;;;;;;5004346;28;20444;-78
2023/05/30 08:53:03;;;;;;;4.43;1.20;;;16.70;99.90;;;;;;5004609;28;20366;-79
2023/05/30 08:55:38;;;;;;;4.45;0.80;;;16.90;99.90;;;;;;4990738;28;20042;-80
2023/05/30 08:58:13;;;;;;;3.72;0.70;;;17.10;99.90;;;;;;5006556;28;20113;-81
2023/05/30 09:00:40;;;;;;;3.35;0.88;;;17.20;99.90;;;;;;5002758;28;20112;-80
2023/05/30 09:03:07;;;;;;;4.30;0.85;;;17.50;99.90;;;;;;4993601;28;20033;-80
2023/05/30 09:05:34;;;;;;;4.13;0.90;;;17.70;99.90;;;;;;5008720;28;20026;-78
2023/05/30 09:08:03;;;;;;;7.53;1.27;;;17.90;99.90;;;;;;5023152;28;20033;-79
2023/05/30 09:10:30;;;;;;;2.95;0.80;;;17.90;99.90;;;;;;4991651;28;20029;-79
2023/05/30 09:12:59;;;;;;;6.47;1.77;;;18.40;99.90;;;;;;5007022;28;20084;-80
2023/05/30 09:15:25;;;;;;;3.35;1.05;;;17.50;99.90;;;;;;5004544;28;20030;-80
2023/05/30 09:17:51;;;;;;;3.33;1.00;;;18.00;99.90;;;;;;5008847;28;20033;-79
2023/05/30 09:20:17;;;;;;;3.92;1.00;;;18.30;99.90;;;;;;5015458;28;20027;-77
2023/05/30 09:22:46;;;;;;;3.60;0.77;;;18.10;99.90;;;;;;4991970;28;20478;-76
2023/05/30 09:25:15;;;;;;;4.83;1.00;;;18.50;99.90;;;;;;5005046;28;20042;-78
2023/05/30 09:27:49;;;;;;;4.43;1.15;;;17.90;99.90;;;;;;4992446;28;20671;-76
2023/05/30 09:30:15;;;;;;;5.43;0.93;;;18.30;99.90;;;;;;5005633;28;20044;-76
2023/05/30 09:32:40;;;;;;;5.82;1.40;;;18.60;99.90;;;;;;5006008;28;20033;-77
2023/05/30 09:35:12;;;;;;;5.38;1.20;;;17.70;99.90;;;;;;5005113;28;20034;-79
2023/05/30 09:37:43;;;;;;;5.95;1.48;;;17.00;99.90;;;;;;5006525;28;20519;-79
2023/05/30 09:40:15;;;;;;;6.18;1.58;;;17.30;99.90;;;;;;5020014;28;20026;-79
2023/05/30 09:42:47;;;;;;;4.35;1.10;;;17.20;99.90;;;;;;4991968;28;20403;-80
2023/05/30 09:45:14;;;;;;;6.20;1.10;;;17.70;99.90;;;;;;4990134;28;20111;-80
2023/05/30 09:47:44;;;;;;;4.45;0.80;;;17.80;99.90;;;;;;5005513;28;20394;-79
2023/05/30 09:50:12;;;;;;;5.25;1.35;;;18.30;99.90;;;;;;5009248;28;20034;-79
2023/05/30 09:52:40;;;;;;;4.00;0.90;;;18.10;99.90;;;;;;4987959;28;20487;-79
2023/05/30 09:55:07;;;;;;;4.57;1.08;;;18.70;99.90;;;;;;4989805;28;20461;-80
2023/05/30 09:57:36;;;;;;;5.32;1.20;;;18.70;99.90;;;;;;5007497;28;20489;-79
2023/05/30 10:00:11;;;;;;;2.33;0.70;;;18.20;99.90;;;;;;5008696;28;20065;-80
2023/05/30 10:02:41;;;;;;;3.70;1.15;;;18.70;99.90;;;;;;5002050;28;20030;-79
2023/05/30 10:05:19;;;;;;;4.70;1.00;;;18.40;99.90;;;;;;5007096;28;20040;-79
2023/05/30 10:07:47;;;;;;;5.65;1.40;;;18.60;99.90;;;;;;5007167;28;20298;-79
2023/05/30 10:10:14;;;;;;;3.58;1.10;;;18.20;99.90;;;;;;4991692;28;20041;-80
2023/05/30 10:12:42;;;;;;;3.60;1.00;;;18.80;99.90;;;;;;5004566;28;20356;-79
2023/05/30 10:15:09;;;;;;;6.60;1.20;;;19.10;99.90;;;;;;4989413;28;20394;-79
2023/05/30 10:17:38;;;;;;;2.85;0.60;;;18.50;99.90;;;;;;5004039;28;20494;-80
2023/05/30 10:20:09;;;;;;;3.83;0.80;;;19.40;99.90;;;;;;5004476;28;20037;-77
2023/05/30 10:22:47;;;;;;;6.07;1.40;;;19.20;99.90;;;;;;4989822;28;20088;-78
2023/05/30 10:25:15;;;;;;;6.82;1.42;;;17.90;99.90;;;;;;5005807;28;20128;-77
2023/05/30 10:27:52;;;;;;;4.43;0.82;;;18.20;99.90;;;;;;5002880;28;20108;-77
2023/05/30 10:30:26;;;;;;;3.08;0.80;;;18.90;99.90;;;;;;5008004;28;20480;-77
2023/05/30 10:33:09;;;;;;;4.88;1.02;;;18.90;99.90;;;;;;4989476;28;20402;-76
2023/05/30 10:35:35;;;;;;;7.03;0.95;;;18.70;99.90;;;;;;5003372;28;20026;-80
2023/05/30 10:38:04;;;;;;;8.73;1.67;;;18.60;99.90;;;;;;5004754;28;20034;-78
2023/05/30 10:40:57;;;;;;;5.85;1.05;;;18.30;99.90;;;;;;5014830;28;20053;-80
2023/05/30 10:43:44;;;;;;;5.55;0.90;;;18.50;99.90;;;;;;5004178;28;20038;-79
2023/05/30 10:46:28;;;;;;;4.20;1.10;;;19.00;99.90;;;;;;5010079;28;20030;-79
2023/05/30 10:48:59;;;;;;;5.40;1.58;;;18.90;99.90;;;;;;5007210;28;20467;-80
2023/05/30 10:51:25;;;;;;;3.60;0.80;;;18.20;99.90;;;;;;5007604;28;20078;-79
2023/05/30 10:53:51;;;;;;;4.85;0.80;;;18.70;99.90;;;;;;4998712;28;20058;-78
2023/05/30 10:56:42;;;;;;;4.38;1.30;;;19.20;99.90;;;;;;5003174;28;20072;-77
2023/05/30 10:59:15;;;;;;;3.55;0.85;;;18.90;99.90;;;;;;5003108;28;20034;-77
2023/05/30 11:01:41;;;;;;;4.63;0.82;;;19.30;99.90;;;;;;5007288;28;20026;-79
2023/05/30 11:04:13;;;;;;;4.93;0.80;;;19.90;99.90;;;;;;5006018;28;20073;-79
2023/05/30 11:06:44;;;;;;;7.68;0.90;;;19.60;99.90;;;;;;4990538;28;20026;-79
2023/05/30 11:09:15;;;;;;;5.75;0.70;;;19.90;99.90;;;;;;5007382;28;20034;-80
2023/05/30 11:11:42;;;;;;;4.20;0.98;;;20.50;99.90;;;;;;5001958;28;20089;-79
2023/05/30 11:14:10;;;;;;;3.38;0.70;;;20.10;99.90;;;;;;4986308;28;20057;-80
2023/05/30 11:16:49;;;;;;;3.13;0.70;;;20.70;99.90;;;;;;5004288;28;20106;-80
2023/05/30 11:19:15;;;;;;;5.35;1.10;;;20.00;99.90;;;;;;4997290;28;21185;-80
2023/05/30 11:22:01;;;;;;;4.05;0.70;;;19.60;99.90;;;;;;4975735;28;20030;-79
2023/05/30 11:24:29;;;;;;;6.95;1.35;;;20.10;99.90;;;;;;4993501;28;20135;-80
2023/05/30 11:27:00;;;;;;;3.60;0.82;;;19.20;99.90;;;;;;5012480;28;20034;-78
2023/05/30 11:29:43;;;;;;;3.30;0.65;;;19.50;99.90;;;;;;5005932;28;20034;-77
2023/05/30 11:32:10;;;;;;;2.85;0.63;;;20.30;99.90;;;;;;5014209;28;20037;-77
2023/05/30 11:34:36;;;;;;;6.53;1.35;;;20.50;99.90;;;;;;5019172;28;20108;-77
2023/05/30 11:37:03;;;;;;;2.50;0.60;;;19.50;99.90;;;;;;5003589;28;20065;-77
2023/05/30 11:39:36;;;;;;;3.90;0.70;;;20.00;99.90;;;;;;5004091;28;20091;-78
2023/05/30 11:42:07;;;;;;;5.88;1.50;;;19.50;99.90;;;;;;5017200;28;20030;-79
2023/05/30 11:44:33;;;;;;;4.05;0.80;;;19.50;99.90;;;;;;5020214;28;20033;-77
2023/05/30 11:47:11;;;;;;;4.72;0.88;;;19.80;99.90;;;;;;5005319;28;20501;-77
2023/05/30 11:49:37;;;;;;;5.82;1.48;;;19.70;99.90;;;;;;4988471;28;20571;-77
2023/05/30 11:52:03;;;;;;;4.05;0.70;;;19.80;99.90;;;;;;5006976;28;20208;-77
2023/05/30 11:54:29;;;;;;;8.98;1.25;;;20.10;99.90;;;;;;5005880;28;20040;-78
2023/05/30 11:56:56;;;;;;;5.10;1.40;;;19.70;99.90;;;;;;5004411;28;20061;-76
2023/05/30 11:59:25;;;;;;;4.10;0.55;;;20.20;99.90;;;;;;5019852;28;20069;-77
2023/05/30 12:01:58;;;;;;;5.32;0.82;;;20.60;99.90;;;;;;4990217;28;20462;-78
2023/05/30 12:04:31;;;;;;;4.93;1.00;;;20.90;99.90;;;;;;4999806;28;20308;-77
2023/05/30 12:07:02;;;;;;;3.38;0.82;;;20.50;99.90;;;;;;4987947;28;20398;-77
2023/05/30 12:09:28;;;;;;;5.15;1.08;;;20.30;99.90;;;;;;4988377;28;20073;-77
2023/05/30 12:11:56;;;;;;;4.20;1.20;;;20.00;99.90;;;;;;5002886;28;20532;-77
2023/05/30 12:14:49;;;;;;;6.40;1.35;;;19.60;99.90;;;;;;4988225;28;20136;-77
2023/05/30 12:17:18;;;;;;;5.05;1.25;;;19.60;99.90;;;;;;5003265;28;20062;-77
2023/05/30 12:19:57;;;;;;;6.05;1.35;;;19.70;99.90;;;;;;5000070;28;20468;-77
2023/05/30 12:22:24;;;;;;;2.43;0.70;;;19.90;99.90;;;;;;5006366;28;20145;-77
2023/05/30 12:24:51;;;;;;;4.85;1.38;;;20.40;99.90;;;;;;5005295;28;20304;-77
2023/05/30 12:27:19;;;;;;;5.38;1.35;;;20.20;99.90;;;;;;5012727;28;20382;-78
2023/05/30 12:29:44;;;;;;;6.43;1.38;;;20.40;99.90;;;;;;5005135;28;20030;-78
2023/05/30 12:32:10;;;;;;;4.75;0.88;;;20.20;99.90;;;;;;4988554;28;20041;-77
2023/05/30 12:34:37;;;;;;;2.88;0.50;;;20.50;99.90;;;;;;5001555;28;20034;-77
2023/05/30 12:37:06;;;;;;;3.63;0.77;;;21.00;99.90;;;;;;5002914;28;20442;-78
2023/05/30 12:39:32;;;;;;;4.28;0.90;;;20.90;99.90;;;;;;4986938;28;20117;-77
2023/05/30 12:41:58;;;;;;;8.65;1.52;;;20.50;99.90;;;;;;5005689;28;20506;-78
2023/05/30 12:44:23;;;;;;;6.05;1.38;;;19.80;99.90;;;;;;5006034;28;20049;-79
2023/05/30 12:46:49;;;;;;;4.78;0.90;;;20.00;99.90;;;;;;5005680;28;20113;-80
2023/05/30 12:49:15;;;;;;;4.45;0.80;;;20.30;99.90;;;;;;5006020;28;20026;-79
2023/05/30 12:51:41;;;;;;;3.42;0.65;;;20.30;99.90;;;;;;5017403;28;20448;-80
2023/05/30 12:54:08;;;;;;;4.75;1.00;;;20.70;99.90;;;;;;5005866;28;20478;-80
2023/05/30 12:56:33;;;;;;;3.88;0.73;;;20.80;99.90;;;;;;4988224;28;20156;-80